sensor_id;sensor_type;location;lat;lon;timestamp;P1;durP1;ratioP1;P2;durP2;ratioP2
59734;SDS011;64362;45.620;4.920;2023-12-20T00:01:44;8.43;;;6.82;;
59734;SDS011;64362;45.620;4.920;2023-12-20T00:04:10;8.90;;;6.05;;
59734;SDS011;64362;45.620;4.920;2023-12-20T00:06:35;8.40;;;6.05;;
59734;SDS011;64362;45.620;4.920;2023-12-20T00:09:01;6.78;;;5.72;;
59734;SDS011;64362;45.620;4.920;2023-12-20T00:11:26;7.65;;;6.20;;
59734;SDS011;64362;45.620;4.920;2023-12-20T00:13:52;7.40;;;6.22;;
59734;SDS011;64362;45.620;4.920;2023-12-20T00:16:17;10.00;;;6.57;;
59734;SDS011;64362;45.620;4.920;2023-12-20T00:18:43;8.40;;;5.88;;
59734;SDS011;64362;45.620;4.920;2023-12-20T00:21:08;8.00;;;6.13;;
59734;SDS011;64362;45.620;4.920;2023-12-20T00:23:33;8.52;;;6.28;;
59734;SDS011;64362;45.620;4.920;2023-12-20T00:25:59;8.45;;;6.22;;
59734;SDS011;64362;45.620;4.920;2023-12-20T00:28:24;7.28;;;5.88;;
59734;SDS011;64362;45.620;4.920;2023-12-20T00:30:50;9.70;;;6.63;;
59734;SDS011;64362;45.620;4.920;2023-12-20T00:33:15;7.45;;;5.95;;
59734;SDS011;64362;45.620;4.920;2023-12-20T00:35:41;9.13;;;6.85;;
59734;SDS011;64362;45.620;4.920;2023-12-20T00:38:06;8.43;;;6.28;;
59734;SDS011;64362;45.620;4.920;2023-12-20T00:40:33;10.13;;;6.72;;
59734;SDS011;64362;45.620;4.920;2023-12-20T00:42:59;8.07;;;6.20;;
59734;SDS011;64362;45.620;4.920;2023-12-20T00:45:24;7.97;;;6.70;;
59734;SDS011;64362;45.620;4.920;2023-12-20T00:47:50;8.82;;;6.65;;
59734;SDS011;64362;45.620;4.920;2023-12-20T00:50:15;8.02;;;6.45;;
59734;SDS011;64362;45.620;4.920;2023-12-20T00:52:41;9.80;;;6.88;;
59734;SDS011;64362;45.620;4.920;2023-12-20T00:55:06;9.40;;;7.00;;
59734;SDS011;64362;45.620;4.920;2023-12-20T00:57:32;9.52;;;6.65;;
59734;SDS011;64362;45.620;4.920;2023-12-20T00:59:58;8.82;;;6.43;;
59734;SDS011;64362;45.620;4.920;2023-12-20T01:02:23;9.52;;;6.88;;
59734;SDS011;64362;45.620;4.920;2023-12-20T01:04:49;9.50;;;6.68;;
59734;SDS011;64362;45.620;4.920;2023-12-20T01:07:14;7.63;;;6.13;;
59734;SDS011;64362;45.620;4.920;2023-12-20T01:09:40;8.00;;;5.90;;
59734;SDS011;64362;45.620;4.920;2023-12-20T01:12:05;9.45;;;6.88;;
59734;SDS011;64362;45.620;4.920;2023-12-20T01:14:31;9.05;;;6.40;;
59734;SDS011;64362;45.620;4.920;2023-12-20T01:16:56;8.68;;;6.78;;
59734;SDS011;64362;45.620;4.920;2023-12-20T01:19:22;7.60;;;6.60;;
59734;SDS011;64362;45.620;4.920;2023-12-20T01:21:49;8.80;;;6.72;;
59734;SDS011;64362;45.620;4.920;2023-12-20T01:24:14;8.63;;;6.45;;
59734;SDS011;64362;45.620;4.920;2023-12-20T01:26:39;8.45;;;6.38;;
59734;SDS011;64362;45.620;4.920;2023-12-20T01:29:05;7.97;;;6.63;;
59734;SDS011;64362;45.620;4.920;2023-12-20T01:31:30;8.43;;;6.50;;
59734;SDS011;64362;45.620;4.920;2023-12-20T01:33:56;8.45;;;6.32;;
59734;SDS011;64362;45.620;4.920;2023-12-20T01:36:21;8.70;;;6.53;;
59734;SDS011;64362;45.620;4.920;2023-12-20T01:38:47;8.43;;;6.15;;
59734;SDS011;64362;45.620;4.920;2023-12-20T01:41:12;8.88;;;6.28;;
59734;SDS011;64362;45.620;4.920;2023-12-20T01:43:37;8.43;;;6.75;;
59734;SDS011;64362;45.620;4.920;2023-12-20T01:46:03;8.85;;;7.18;;
59734;SDS011;64362;45.620;4.920;2023-12-20T01:48:29;8.88;;;6.53;;
59734;SDS011;64362;45.620;4.920;2023-12-20T01:50:57;9.20;;;6.80;;
59734;SDS011;64362;45.620;4.920;2023-12-20T01:53:25;9.80;;;7.13;;
59734;SDS011;64362;45.620;4.920;2023-12-20T01:55:50;9.45;;;6.65;;
59734;SDS011;64362;45.620;4.920;2023-12-20T01:58:17;9.30;;;6.40;;
59734;SDS011;64362;45.620;4.920;2023-12-20T02:00:44;8.57;;;6.45;;
59734;SDS011;64362;45.620;4.920;2023-12-20T02:03:09;10.23;;;6.50;;
59734;SDS011;64362;45.620;4.920;2023-12-20T02:05:35;10.00;;;6.75;;
59734;SDS011;64362;45.620;4.920;2023-12-20T02:08:02;8.60;;;6.82;;
59734;SDS011;64362;45.620;4.920;2023-12-20T02:10:28;8.35;;;6.93;;
59734;SDS011;64362;45.620;4.920;2023-12-20T02:12:55;9.18;;;6.53;;
59734;SDS011;64362;45.620;4.920;2023-12-20T02:15:20;9.00;;;6.85;;
59734;SDS011;64362;45.620;4.920;2023-12-20T02:17:46;8.50;;;5.90;;
59734;SDS011;64362;45.620;4.920;2023-12-20T02:20:13;8.15;;;6.35;;
59734;SDS011;64362;45.620;4.920;2023-12-20T02:22:38;9.27;;;6.20;;
59734;SDS011;64362;45.620;4.920;2023-12-20T02:25:04;7.50;;;6.38;;
59734;SDS011;64362;45.620;4.920;2023-12-20T02:27:30;8.77;;;6.38;;
59734;SDS011;64362;45.620;4.920;2023-12-20T02:29:56;8.35;;;6.30;;
59734;SDS011;64362;45.620;4.920;2023-12-20T02:32:22;8.30;;;6.03;;
59734;SDS011;64362;45.620;4.920;2023-12-20T02:34:51;9.43;;;6.32;;
59734;SDS011;64362;45.620;4.920;2023-12-20T02:37:17;8.95;;;6.70;;
59734;SDS011;64362;45.620;4.920;2023-12-20T02:39:42;8.32;;;6.40;;
59734;SDS011;64362;45.620;4.920;2023-12-20T02:42:07;8.05;;;5.90;;
59734;SDS011;64362;45.620;4.920;2023-12-20T02:44:33;8.88;;;6.20;;
59734;SDS011;64362;45.620;4.920;2023-12-20T02:46:59;8.65;;;6.05;;
59734;SDS011;64362;45.620;4.920;2023-12-20T02:49:24;7.60;;;6.40;;
59734;SDS011;64362;45.620;4.920;2023-12-20T02:51:49;8.63;;;6.25;;
59734;SDS011;64362;45.620;4.920;2023-12-20T02:54:15;7.45;;;6.25;;
59734;SDS011;64362;45.620;4.920;2023-12-20T02:56:41;8.63;;;6.43;;
59734;SDS011;64362;45.620;4.920;2023-12-20T02:59:06;9.57;;;6.63;;
59734;SDS011;64362;45.620;4.920;2023-12-20T03:01:33;8.57;;;6.88;;
59734;SDS011;64362;45.620;4.920;2023-12-20T03:03:59;9.38;;;6.97;;
59734;SDS011;64362;45.620;4.920;2023-12-20T03:06:25;8.55;;;6.10;;
59734;SDS011;64362;45.620;4.920;2023-12-20T03:08:50;8.27;;;6.00;;
59734;SDS011;64362;45.620;4.920;2023-12-20T03:11:16;7.63;;;6.15;;
59734;SDS011;64362;45.620;4.920;2023-12-20T03:13:41;6.93;;;6.15;;
59734;SDS011;64362;45.620;4.920;2023-12-20T03:16:10;10.43;;;6.63;;
59734;SDS011;64362;45.620;4.920;2023-12-20T03:18:36;8.05;;;6.50;;
59734;SDS011;64362;45.620;4.920;2023-12-20T03:21:01;8.35;;;6.80;;
59734;SDS011;64362;45.620;4.920;2023-12-20T03:23:27;9.95;;;6.93;;
59734;SDS011;64362;45.620;4.920;2023-12-20T03:25:52;8.30;;;7.03;;
59734;SDS011;64362;45.620;4.920;2023-12-20T03:28:18;9.07;;;7.28;;
59734;SDS011;64362;45.620;4.920;2023-12-20T03:30:44;8.63;;;6.93;;
59734;SDS011;64362;45.620;4.920;2023-12-20T03:33:09;9.52;;;6.88;;
59734;SDS011;64362;45.620;4.920;2023-12-20T03:35:35;8.20;;;6.28;;
59734;SDS011;64362;45.620;4.920;2023-12-20T03:38:00;8.30;;;6.40;;
59734;SDS011;64362;45.620;4.920;2023-12-20T03:40:26;7.60;;;6.13;;
59734;SDS011;64362;45.620;4.920;2023-12-20T03:42:51;8.93;;;7.10;;
59734;SDS011;64362;45.620;4.920;2023-12-20T03:45:17;7.93;;;6.20;;
59734;SDS011;64362;45.620;4.920;2023-12-20T03:47:42;8.15;;;6.40;;
59734;SDS011;64362;45.620;4.920;2023-12-20T03:50:08;9.00;;;6.45;;
59734;SDS011;64362;45.620;4.920;2023-12-20T03:52:33;7.28;;;6.00;;
59734;SDS011;64362;45.620;4.920;2023-12-20T03:54:58;8.80;;;6.65;;
59734;SDS011;64362;45.620;4.920;2023-12-20T03:57:24;8.70;;;6.88;;
59734;SDS011;64362;45.620;4.920;2023-12-20T03:59:49;8.25;;;6.35;;
59734;SDS011;64362;45.620;4.920;2023-12-20T04:02:15;8.40;;;6.32;;
59734;SDS011;64362;45.620;4.920;2023-12-20T04:04:40;7.93;;;6.65;;
59734;SDS011;64362;45.620;4.920;2023-12-20T04:07:07;7.75;;;6.05;;
59734;SDS011;64362;45.620;4.920;2023-12-20T04:09:32;7.93;;;6.28;;
59734;SDS011;64362;45.620;4.920;2023-12-20T04:11:58;7.72;;;6.65;;
59734;SDS011;64362;45.620;4.920;2023-12-20T04:14:23;7.47;;;6.25;;
59734;SDS011;64362;45.620;4.920;2023-12-20T04:16:50;6.93;;;6.20;;
59734;SDS011;64362;45.620;4.920;2023-12-20T04:19:15;7.70;;;6.43;;
59734;SDS011;64362;45.620;4.920;2023-12-20T04:21:40;6.75;;;5.60;;
59734;SDS011;64362;45.620;4.920;2023-12-20T04:24:06;6.75;;;6.00;;
59734;SDS011;64362;45.620;4.920;2023-12-20T04:26:32;6.93;;;5.95;;
59734;SDS011;64362;45.620;4.920;2023-12-20T04:28:57;7.97;;;6.80;;
59734;SDS011;64362;45.620;4.920;2023-12-20T04:31:22;7.63;;;5.95;;
59734;SDS011;64362;45.620;4.920;2023-12-20T04:33:48;7.25;;;6.13;;
59734;SDS011;64362;45.620;4.920;2023-12-20T04:36:14;8.02;;;6.10;;
59734;SDS011;64362;45.620;4.920;2023-12-20T04:38:39;7.70;;;6.05;;
59734;SDS011;64362;45.620;4.920;2023-12-20T04:41:05;7.03;;;5.88;;
59734;SDS011;64362;45.620;4.920;2023-12-20T04:43:30;8.05;;;5.82;;
59734;SDS011;64362;45.620;4.920;2023-12-20T04:45:56;8.95;;;6.30;;
59734;SDS011;64362;45.620;4.920;2023-12-20T04:48:21;7.15;;;5.90;;
59734;SDS011;64362;45.620;4.920;2023-12-20T04:50:47;7.82;;;6.30;;
59734;SDS011;64362;45.620;4.920;2023-12-20T04:53:12;7.82;;;5.97;;
59734;SDS011;64362;45.620;4.920;2023-12-20T04:55:38;6.93;;;6.15;;
59734;SDS011;64362;45.620;4.920;2023-12-20T04:58:04;7.03;;;5.95;;
59734;SDS011;64362;45.620;4.920;2023-12-20T05:00:29;6.93;;;5.88;;
59734;SDS011;64362;45.620;4.920;2023-12-20T05:02:55;7.10;;;6.28;;
59734;SDS011;64362;45.620;4.920;2023-12-20T05:05:21;7.53;;;6.30;;
59734;SDS011;64362;45.620;4.920;2023-12-20T05:07:46;6.68;;;5.85;;
59734;SDS011;64362;45.620;4.920;2023-12-20T05:10:11;7.65;;;5.97;;
59734;SDS011;64362;45.620;4.920;2023-12-20T05:12:37;8.75;;;6.57;;
59734;SDS011;64362;45.620;4.920;2023-12-20T05:15:03;7.13;;;6.18;;
59734;SDS011;64362;45.620;4.920;2023-12-20T05:17:30;6.32;;;5.57;;
59734;SDS011;64362;45.620;4.920;2023-12-20T05:19:56;7.65;;;6.00;;
59734;SDS011;64362;45.620;4.920;2023-12-20T05:22:21;8.05;;;6.45;;
59734;SDS011;64362;45.620;4.920;2023-12-20T05:24:47;7.15;;;6.35;;
59734;SDS011;64362;45.620;4.920;2023-12-20T05:27:12;7.10;;;6.07;;
59734;SDS011;64362;45.620;4.920;2023-12-20T05:29:38;7.85;;;6.25;;
59734;SDS011;64362;45.620;4.920;2023-12-20T05:32:03;6.78;;;5.88;;
59734;SDS011;64362;45.620;4.920;2023-12-20T05:34:30;8.48;;;6.32;;
59734;SDS011;64362;45.620;4.920;2023-12-20T05:36:56;7.80;;;6.55;;
59734;SDS011;64362;45.620;4.920;2023-12-20T05:39:21;8.05;;;6.20;;
59734;SDS011;64362;45.620;4.920;2023-12-20T05:41:47;7.60;;;6.47;;
59734;SDS011;64362;45.620;4.920;2023-12-20T05:44:13;7.93;;;6.32;;
59734;SDS011;64362;45.620;4.920;2023-12-20T05:46:38;7.43;;;6.15;;
59734;SDS011;64362;45.620;4.920;2023-12-20T05:49:05;6.82;;;6.07;;
59734;SDS011;64362;45.620;4.920;2023-12-20T05:51:30;7.05;;;5.90;;
59734;SDS011;64362;45.620;4.920;2023-12-20T05:53:56;6.75;;;6.05;;
59734;SDS011;64362;45.620;4.920;2023-12-20T05:56:21;7.35;;;6.43;;
59734;SDS011;64362;45.620;4.920;2023-12-20T05:58:47;7.25;;;6.07;;
59734;SDS011;64362;45.620;4.920;2023-12-20T06:01:14;7.18;;;6.03;;
59734;SDS011;64362;45.620;4.920;2023-12-20T06:03:43;6.85;;;5.97;;
59734;SDS011;64362;45.620;4.920;2023-12-20T06:06:08;6.47;;;5.53;;
59734;SDS011;64362;45.620;4.920;2023-12-20T06:08:34;7.13;;;6.00;;
59734;SDS011;64362;45.620;4.920;2023-12-20T06:11:00;6.25;;;5.63;;
59734;SDS011;64362;45.620;4.920;2023-12-20T06:13:26;7.22;;;6.07;;
59734;SDS011;64362;45.620;4.920;2023-12-20T06:15:52;7.68;;;5.53;;
59734;SDS011;64362;45.620;4.920;2023-12-20T06:18:19;6.85;;;5.35;;
59734;SDS011;64362;45.620;4.920;2023-12-20T06:20:44;6.57;;;5.65;;
59734;SDS011;64362;45.620;4.920;2023-12-20T06:23:09;6.85;;;5.68;;
59734;SDS011;64362;45.620;4.920;2023-12-20T06:25:35;8.00;;;5.68;;
59734;SDS011;64362;45.620;4.920;2023-12-20T06:28:00;6.82;;;5.80;;
59734;SDS011;64362;45.620;4.920;2023-12-20T06:30:26;8.07;;;5.85;;
59734;SDS011;64362;45.620;4.920;2023-12-20T06:32:52;7.95;;;6.53;;
59734;SDS011;64362;45.620;4.920;2023-12-20T06:35:18;7.30;;;6.13;;
59734;SDS011;64362;45.620;4.920;2023-12-20T06:37:44;7.90;;;6.35;;
59734;SDS011;64362;45.620;4.920;2023-12-20T06:40:10;7.47;;;6.40;;
59734;SDS011;64362;45.620;4.920;2023-12-20T06:42:35;6.63;;;5.75;;
59734;SDS011;64362;45.620;4.920;2023-12-20T06:45:01;7.10;;;5.93;;
59734;SDS011;64362;45.620;4.920;2023-12-20T06:47:27;7.38;;;6.45;;
59734;SDS011;64362;45.620;4.920;2023-12-20T06:49:52;8.18;;;6.47;;
59734;SDS011;64362;45.620;4.920;2023-12-20T06:52:18;7.50;;;6.07;;
59734;SDS011;64362;45.620;4.920;2023-12-20T06:54:43;11.25;;;6.13;;
59734;SDS011;64362;45.620;4.920;2023-12-20T06:57:09;7.55;;;6.25;;
59734;SDS011;64362;45.620;4.920;2023-12-20T06:59:38;7.03;;;5.70;;
59734;SDS011;64362;45.620;4.920;2023-12-20T07:02:07;8.00;;;6.00;;
59734;SDS011;64362;45.620;4.920;2023-12-20T07:04:33;8.38;;;6.05;;
59734;SDS011;64362;45.620;4.920;2023-12-20T07:06:59;7.70;;;6.03;;
59734;SDS011;64362;45.620;4.920;2023-12-20T07:09:25;9.10;;;5.88;;
59734;SDS011;64362;45.620;4.920;2023-12-20T07:11:51;9.45;;;5.90;;
59734;SDS011;64362;45.620;4.920;2023-12-20T07:14:17;8.38;;;6.25;;
59734;SDS011;64362;45.620;4.920;2023-12-20T07:16:43;8.85;;;6.07;;
59734;SDS011;64362;45.620;4.920;2023-12-20T07:19:08;10.30;;;7.07;;
59734;SDS011;64362;45.620;4.920;2023-12-20T07:21:33;8.70;;;6.57;;
59734;SDS011;64362;45.620;4.920;2023-12-20T07:23:59;9.23;;;6.53;;
59734;SDS011;64362;45.620;4.920;2023-12-20T07:26:25;10.27;;;6.43;;
59734;SDS011;64362;45.620;4.920;2023-12-20T07:28:50;8.02;;;6.55;;
59734;SDS011;64362;45.620;4.920;2023-12-20T07:31:16;9.18;;;6.75;;
59734;SDS011;64362;45.620;4.920;2023-12-20T07:33:41;7.63;;;6.25;;
59734;SDS011;64362;45.620;4.920;2023-12-20T07:36:07;8.63;;;6.50;;
59734;SDS011;64362;45.620;4.920;2023-12-20T07:38:33;6.78;;;6.05;;
59734;SDS011;64362;45.620;4.920;2023-12-20T07:40:58;8.40;;;6.78;;
59734;SDS011;64362;45.620;4.920;2023-12-20T07:43:24;9.15;;;6.68;;
59734;SDS011;64362;45.620;4.920;2023-12-20T07:45:49;8.05;;;6.53;;
59734;SDS011;64362;45.620;4.920;2023-12-20T07:48:15;8.27;;;6.63;;
59734;SDS011;64362;45.620;4.920;2023-12-20T07:50:41;9.63;;;6.65;;
59734;SDS011;64362;45.620;4.920;2023-12-20T07:53:07;7.68;;;6.30;;
59734;SDS011;64362;45.620;4.920;2023-12-20T07:55:33;9.85;;;6.18;;
59734;SDS011;64362;45.620;4.920;2023-12-20T07:57:59;8.32;;;7.10;;
59734;SDS011;64362;45.620;4.920;2023-12-20T08:00:25;9.52;;;7.35;;
59734;SDS011;64362;45.620;4.920;2023-12-20T08:02:50;10.90;;;7.32;;
59734;SDS011;64362;45.620;4.920;2023-12-20T08:05:16;9.30;;;7.40;;
59734;SDS011;64362;45.620;4.920;2023-12-20T08:07:41;7.30;;;6.50;;
59734;SDS011;64362;45.620;4.920;2023-12-20T08:10:07;9.68;;;7.22;;
59734;SDS011;64362;45.620;4.920;2023-12-20T08:12:32;8.48;;;6.22;;
59734;SDS011;64362;45.620;4.920;2023-12-20T08:14:58;8.35;;;6.43;;
59734;SDS011;64362;45.620;4.920;2023-12-20T08:17:24;9.15;;;6.72;;
59734;SDS011;64362;45.620;4.920;2023-12-20T08:19:49;9.60;;;6.72;;
59734;SDS011;64362;45.620;4.920;2023-12-20T08:22:15;9.45;;;6.78;;
59734;SDS011;64362;45.620;4.920;2023-12-20T08:24:40;8.73;;;6.13;;
59734;SDS011;64362;45.620;4.920;2023-12-20T08:27:06;9.13;;;6.18;;
59734;SDS011;64362;45.620;4.920;2023-12-20T08:29:31;7.88;;;6.18;;
59734;SDS011;64362;45.620;4.920;2023-12-20T08:31:57;8.68;;;6.22;;
59734;SDS011;64362;45.620;4.920;2023-12-20T08:34:22;7.97;;;6.18;;
59734;SDS011;64362;45.620;4.920;2023-12-20T08:36:49;6.97;;;5.65;;
59734;SDS011;64362;45.620;4.920;2023-12-20T08:39:16;7.70;;;6.18;;
59734;SDS011;64362;45.620;4.920;2023-12-20T08:41:42;8.23;;;6.20;;
59734;SDS011;64362;45.620;4.920;2023-12-20T08:44:08;7.45;;;6.13;;
59734;SDS011;64362;45.620;4.920;2023-12-20T08:46:34;9.18;;;6.25;;
59734;SDS011;64362;45.620;4.920;2023-12-20T08:49:00;7.93;;;5.90;;
59734;SDS011;64362;45.620;4.920;2023-12-20T08:51:26;7.50;;;6.00;;
59734;SDS011;64362;45.620;4.920;2023-12-20T08:53:52;7.93;;;5.78;;
59734;SDS011;64362;45.620;4.920;2023-12-20T08:56:17;7.38;;;5.80;;
59734;SDS011;64362;45.620;4.920;2023-12-20T08:58:43;10.02;;;6.18;;
59734;SDS011;64362;45.620;4.920;2023-12-20T09:01:09;9.07;;;5.60;;
59734;SDS011;64362;45.620;4.920;2023-12-20T09:03:35;9.35;;;7.03;;
59734;SDS011;64362;45.620;4.920;2023-12-20T09:06:00;11.07;;;6.78;;
59734;SDS011;64362;45.620;4.920;2023-12-20T09:08:26;10.10;;;7.03;;
59734;SDS011;64362;45.620;4.920;2023-12-20T09:10:51;9.32;;;6.05;;
59734;SDS011;64362;45.620;4.920;2023-12-20T09:13:17;7.53;;;6.32;;
59734;SDS011;64362;45.620;4.920;2023-12-20T09:15:42;8.40;;;6.57;;
59734;SDS011;64362;45.620;4.920;2023-12-20T09:18:08;10.85;;;7.18;;
59734;SDS011;64362;45.620;4.920;2023-12-20T09:20:34;9.27;;;7.10;;
59734;SDS011;64362;45.620;4.920;2023-12-20T09:22:59;9.82;;;7.00;;
59734;SDS011;64362;45.620;4.920;2023-12-20T09:25:25;8.80;;;7.30;;
59734;SDS011;64362;45.620;4.920;2023-12-20T09:27:51;10.13;;;7.25;;
59734;SDS011;64362;45.620;4.920;2023-12-20T09:30:17;7.80;;;6.85;;
59734;SDS011;64362;45.620;4.920;2023-12-20T09:32:43;9.23;;;7.30;;
59734;SDS011;64362;45.620;4.920;2023-12-20T09:35:08;8.20;;;6.68;;
59734;SDS011;64362;45.620;4.920;2023-12-20T09:37:34;9.30;;;7.50;;
59734;SDS011;64362;45.620;4.920;2023-12-20T09:40:00;8.32;;;6.60;;
59734;SDS011;64362;45.620;4.920;2023-12-20T09:45:17;7.97;;;6.85;;
59734;SDS011;64362;45.620;4.920;2023-12-20T09:47:45;8.80;;;7.03;;
59734;SDS011;64362;45.620;4.920;2023-12-20T09:50:11;9.00;;;6.78;;
59734;SDS011;64362;45.620;4.920;2023-12-20T09:52:37;8.15;;;7.05;;
59734;SDS011;64362;45.620;4.920;2023-12-20T09:55:04;9.38;;;7.28;;
59734;SDS011;64362;45.620;4.920;2023-12-20T09:57:31;7.95;;;6.25;;
59734;SDS011;64362;45.620;4.920;2023-12-20T09:59:57;8.77;;;6.60;;
59734;SDS011;64362;45.620;4.920;2023-12-20T10:02:23;8.95;;;7.32;;
59734;SDS011;64362;45.620;4.920;2023-12-20T10:04:51;9.02;;;6.68;;
59734;SDS011;64362;45.620;4.920;2023-12-20T10:07:16;9.02;;;6.75;;
59734;SDS011;64362;45.620;4.920;2023-12-20T10:09:42;8.02;;;6.28;;
59734;SDS011;64362;45.620;4.920;2023-12-20T10:12:08;8.25;;;6.78;;
59734;SDS011;64362;45.620;4.920;2023-12-20T10:14:33;7.65;;;6.57;;
59734;SDS011;64362;45.620;4.920;2023-12-20T10:17:05;8.15;;;7.03;;
59734;SDS011;64362;45.620;4.920;2023-12-20T10:19:31;7.13;;;6.13;;
59734;SDS011;64362;45.620;4.920;2023-12-20T10:21:58;7.72;;;6.80;;
59734;SDS011;64362;45.620;4.920;2023-12-20T10:24:24;7.70;;;6.40;;
59734;SDS011;64362;45.620;4.920;2023-12-20T10:27:00;8.40;;;6.28;;
59734;SDS011;64362;45.620;4.920;2023-12-20T10:29:36;7.45;;;5.95;;
59734;SDS011;64362;45.620;4.920;2023-12-20T10:32:21;7.45;;;6.28;;
59734;SDS011;64362;45.620;4.920;2023-12-20T10:34:47;8.35;;;6.65;;
59734;SDS011;64362;45.620;4.920;2023-12-20T10:37:13;8.57;;;6.90;;
59734;SDS011;64362;45.620;4.920;2023-12-20T10:39:38;8.10;;;6.05;;
59734;SDS011;64362;45.620;4.920;2023-12-20T10:42:04;7.78;;;6.28;;
59734;SDS011;64362;45.620;4.920;2023-12-20T10:44:29;7.68;;;6.43;;
59734;SDS011;64362;45.620;4.920;2023-12-20T10:46:55;7.10;;;5.88;;
59734;SDS011;64362;45.620;4.920;2023-12-20T10:49:24;7.82;;;6.55;;
59734;SDS011;64362;45.620;4.920;2023-12-20T10:51:49;8.55;;;6.85;;
59734;SDS011;64362;45.620;4.920;2023-12-20T10:54:16;7.43;;;6.03;;
59734;SDS011;64362;45.620;4.920;2023-12-20T10:56:42;7.47;;;6.20;;
59734;SDS011;64362;45.620;4.920;2023-12-20T10:59:07;8.48;;;6.43;;
59734;SDS011;64362;45.620;4.920;2023-12-20T11:01:36;7.97;;;6.45;;
59734;SDS011;64362;45.620;4.920;2023-12-20T11:04:02;7.13;;;6.00;;
59734;SDS011;64362;45.620;4.920;2023-12-20T11:06:36;7.70;;;5.85;;
59734;SDS011;64362;45.620;4.920;2023-12-20T11:14:39;8.18;;;6.15;;
59734;SDS011;64362;45.620;4.920;2023-12-20T11:17:10;7.40;;;5.38;;
59734;SDS011;64362;45.620;4.920;2023-12-20T11:20:33;7.25;;;5.53;;
59734;SDS011;64362;45.620;4.920;2023-12-20T11:22:35;6.63;;;5.43;;
59734;SDS011;64362;45.620;4.920;2023-12-20T11:27:33;6.38;;;4.90;;
59734;SDS011;64362;45.620;4.920;2023-12-20T11:29:59;9.55;;;5.53;;
59734;SDS011;64362;45.620;4.920;2023-12-20T11:32:28;5.90;;;4.65;;
59734;SDS011;64362;45.620;4.920;2023-12-20T11:35:39;6.60;;;4.45;;
59734;SDS011;64362;45.620;4.920;2023-12-20T11:40:08;4.97;;;4.00;;
59734;SDS011;64362;45.620;4.920;2023-12-20T11:42:39;7.13;;;4.38;;
59734;SDS011;64362;45.620;4.920;2023-12-20T11:45:19;6.22;;;3.95;;
59734;SDS011;64362;45.620;4.920;2023-12-20T11:47:47;5.55;;;3.85;;
59734;SDS011;64362;45.620;4.920;2023-12-20T11:50:20;7.72;;;4.18;;
59734;SDS011;64362;45.620;4.920;2023-12-20T11:52:47;5.80;;;4.07;;
59734;SDS011;64362;45.620;4.920;2023-12-20T11:55:13;5.25;;;3.80;;
59734;SDS011;64362;45.620;4.920;2023-12-20T11:57:39;5.35;;;3.55;;
59734;SDS011;64362;45.620;4.920;2023-12-20T12:00:05;5.65;;;3.60;;
59734;SDS011;64362;45.620;4.920;2023-12-20T12:02:37;5.60;;;3.72;;
59734;SDS011;64362;45.620;4.920;2023-12-20T12:05:02;4.82;;;3.35;;
59734;SDS011;64362;45.620;4.920;2023-12-20T12:07:30;4.80;;;3.63;;
59734;SDS011;64362;45.620;4.920;2023-12-20T12:09:56;4.82;;;3.13;;
59734;SDS011;64362;45.620;4.920;2023-12-20T12:12:22;4.65;;;3.55;;
59734;SDS011;64362;45.620;4.920;2023-12-20T12:14:50;4.25;;;3.15;;
59734;SDS011;64362;45.620;4.920;2023-12-20T12:17:16;4.68;;;3.50;;
59734;SDS011;64362;45.620;4.920;2023-12-20T12:19:41;3.90;;;3.00;;
59734;SDS011;64362;45.620;4.920;2023-12-20T12:22:11;4.35;;;3.00;;
59734;SDS011;64362;45.620;4.920;2023-12-20T12:24:39;4.78;;;2.97;;
59734;SDS011;64362;45.620;4.920;2023-12-20T12:27:05;4.00;;;2.85;;
59734;SDS011;64362;45.620;4.920;2023-12-20T12:29:32;4.68;;;3.17;;
59734;SDS011;64362;45.620;4.920;2023-12-20T12:31:58;4.57;;;2.85;;
59734;SDS011;64362;45.620;4.920;2023-12-20T12:34:24;4.18;;;2.70;;
59734;SDS011;64362;45.620;4.920;2023-12-20T12:36:49;3.45;;;2.30;;
59734;SDS011;64362;45.620;4.920;2023-12-20T12:39:15;4.22;;;2.70;;
59734;SDS011;64362;45.620;4.920;2023-12-20T12:41:43;4.22;;;2.63;;
59734;SDS011;64362;45.620;4.920;2023-12-20T12:44:08;3.80;;;2.58;;
59734;SDS011;64362;45.620;4.920;2023-12-20T12:46:34;3.00;;;2.45;;
59734;SDS011;64362;45.620;4.920;2023-12-20T12:48:59;4.35;;;2.50;;
59734;SDS011;64362;45.620;4.920;2023-12-20T12:51:25;3.50;;;2.42;;
59734;SDS011;64362;45.620;4.920;2023-12-20T12:53:50;3.90;;;2.38;;
59734;SDS011;64362;45.620;4.920;2023-12-20T12:56:16;3.80;;;2.55;;
59734;SDS011;64362;45.620;4.920;2023-12-20T12:58:42;4.32;;;2.33;;
59734;SDS011;64362;45.620;4.920;2023-12-20T13:01:07;3.47;;;2.30;;
59734;SDS011;64362;45.620;4.920;2023-12-20T13:03:33;3.58;;;2.00;;
59734;SDS011;64362;45.620;4.920;2023-12-20T13:05:59;4.00;;;1.90;;
59734;SDS011;64362;45.620;4.920;2023-12-20T13:08:25;3.20;;;2.00;;
59734;SDS011;64362;45.620;4.920;2023-12-20T13:10:50;3.33;;;2.08;;
59734;SDS011;64362;45.620;4.920;2023-12-20T13:13:16;4.40;;;2.13;;
59734;SDS011;64362;45.620;4.920;2023-12-20T13:15:42;3.47;;;2.15;;
59734;SDS011;64362;45.620;4.920;2023-12-20T13:18:07;4.78;;;2.22;;
59734;SDS011;64362;45.620;4.920;2023-12-20T13:20:33;3.90;;;2.20;;
59734;SDS011;64362;45.620;4.920;2023-12-20T13:22:59;3.58;;;2.00;;
59734;SDS011;64362;45.620;4.920;2023-12-20T13:25:24;4.97;;;1.90;;
59734;SDS011;64362;45.620;4.920;2023-12-20T13:27:50;3.90;;;2.10;;
59734;SDS011;64362;45.620;4.920;2023-12-20T13:30:18;5.03;;;1.90;;
59734;SDS011;64362;45.620;4.920;2023-12-20T13:32:44;5.03;;;2.00;;
59734;SDS011;64362;45.620;4.920;2023-12-20T13:35:09;3.47;;;2.03;;
59734;SDS011;64362;45.620;4.920;2023-12-20T13:37:34;3.92;;;1.85;;
59734;SDS011;64362;45.620;4.920;2023-12-20T13:40:00;2.80;;;1.77;;
59734;SDS011;64362;45.620;4.920;2023-12-20T13:42:26;2.92;;;1.50;;
59734;SDS011;64362;45.620;4.920;2023-12-20T13:44:52;3.92;;;1.77;;
59734;SDS011;64362;45.620;4.920;2023-12-20T13:47:18;3.78;;;1.80;;
59734;SDS011;64362;45.620;4.920;2023-12-20T13:49:44;2.67;;;2.03;;
59734;SDS011;64362;45.620;4.920;2023-12-20T13:52:10;7.57;;;1.63;;
59734;SDS011;64362;45.620;4.920;2023-12-20T13:54:36;2.95;;;1.52;;
59734;SDS011;64362;45.620;4.920;2023-12-20T13:57:01;3.10;;;1.48;;
59734;SDS011;64362;45.620;4.920;2023-12-20T13:59:28;3.40;;;1.48;;
59734;SDS011;64362;45.620;4.920;2023-12-20T14:01:53;3.00;;;1.60;;
59734;SDS011;64362;45.620;4.920;2023-12-20T14:04:19;3.50;;;1.80;;
59734;SDS011;64362;45.620;4.920;2023-12-20T14:06:46;3.28;;;1.50;;
59734;SDS011;64362;45.620;4.920;2023-12-20T14:09:12;2.58;;;1.50;;
59734;SDS011;64362;45.620;4.920;2023-12-20T14:11:37;2.78;;;1.40;;
59734;SDS011;64362;45.620;4.920;2023-12-20T14:14:06;3.83;;;1.73;;
59734;SDS011;64362;45.620;4.920;2023-12-20T14:16:33;2.80;;;1.33;;
59734;SDS011;64362;45.620;4.920;2023-12-20T14:18:59;3.05;;;1.60;;
59734;SDS011;64362;45.620;4.920;2023-12-20T14:21:24;3.08;;;1.58;;
59734;SDS011;64362;45.620;4.920;2023-12-20T14:23:50;2.70;;;1.48;;
59734;SDS011;64362;45.620;4.920;2023-12-20T14:26:16;2.97;;;1.60;;
59734;SDS011;64362;45.620;4.920;2023-12-20T14:28:42;2.70;;;1.23;;
59734;SDS011;64362;45.620;4.920;2023-12-20T14:31:07;3.28;;;1.40;;
59734;SDS011;64362;45.620;4.920;2023-12-20T14:33:35;3.17;;;1.50;;
59734;SDS011;64362;45.620;4.920;2023-12-20T14:36:00;2.90;;;1.40;;
59734;SDS011;64362;45.620;4.920;2023-12-20T14:38:28;3.05;;;1.60;;
59734;SDS011;64362;45.620;4.920;2023-12-20T14:40:53;2.35;;;1.23;;
59734;SDS011;64362;45.620;4.920;2023-12-20T14:43:19;2.72;;;1.42;;
59734;SDS011;64362;45.620;4.920;2023-12-20T14:45:47;2.30;;;1.40;;
59734;SDS011;64362;45.620;4.920;2023-12-20T14:48:12;5.03;;;1.67;;
59734;SDS011;64362;45.620;4.920;2023-12-20T14:50:38;4.20;;;1.73;;
59734;SDS011;64362;45.620;4.920;2023-12-20T14:53:05;3.17;;;2.05;;
59734;SDS011;64362;45.620;4.920;2023-12-20T14:55:32;2.53;;;1.67;;